Airfield :
LOGIN :

Register | Disclaimer

   EN    FR    IT 

 










Legend :    VFR   Marginal VFR   IFR   Intensive IFR   Very Intensive IFR
Visi :
Ceiling :
>= 8 km
>= 3000ft
5 to 8 km
1000 to 3000 ft
1500m to 5 km
500 to 1000 ft
800 to 1500m
200 to 500 ft
< 800m
< 200 ft
Symbols :   Thunderstorms  Fog  Heavy snow  Heavy precipitations  Wind > 20 kt
SIGMETs :     Misc.  Thunderstorms  Icing  Turbulence  Mountain Waves  Volcanic Ashes






- Airport Elevation : 826 ft
- IATA code : CWC


UKLN - Chernivtsi International

CURRENT METAR :
  • 100400Z 00000MPS 1200 1000NW R15/P2000N BR NSC M02/M02 Q1010 R15/09//70 NOSIG

EXPIRED METARs :
  • 100330Z 00000MPS 1200 0900SE R15/P2000N FZFG NSC M02/M02 Q1010 R15/09//70 NOSIG
  • 100300Z 00000MPS 0450 0200SE R15/1300N FZFG NSC M02/M02 Q1010 R15/09//70 NOSIG

TAF TAF UKLN
Valid from the 10 at 04:00 until the 10 at 12:00 UTC


100317Z 1004/1012 VRB01MPS 0350 FZFG VV002 TX05/1012Z TNM03/1004Z
TEMPO 1004/1007 1000 BR BKN007
BECMG 1007/1009 9999 NSW SCT033



MET'MAP, your aeronautical weather chart ! - Copyright ORBIFLY December 2007 - Disclaimer

ORBIFLY MET'MAP TEAM :

Programming & Development : Alexandra Zaïnal
Concept & original design : Baudouin d'Aumeries
Assistance for programming : Marc-Olivier Méhu
Technical & hardware support : Manuel Goepfert

Contact : metmap@orbifly.com




SOURCES & CREDITS :

   NOAA